Aérodrome :
LOGIN :

S'inscrire | Disclaimer

   EN    FR    IT 

 










Légende :    VFR   VFR Marginal   IFR   IFR Intensif   IFR Très Intensif
Visi : 
Plafond : 
>= 8 km
>= 3000ft
5 à 8 km
1000 à 3000 ft
1500m à 5 km
500 à 1000 ft
800 à 1500m
200 à 500 ft
< 800m
< 200 ft
Symboles :   Orages  Brouillard  Fortes neiges  Fortes précipitations  Vent > 20 kt
SIGMETs :   Divers  Orages  Givrage  Turbulence  Onde Orograph.  Cendres Volcan.







- Altitude de l'aérodrome : 1649 ft
- Code IATA : HHN


EDFH - Frankfurt-Hahn Rhineland-Palatinate

DERNIER METAR :
  • 241220Z 25011KT 7000 SCT004 BKN006 09/09 Q1010

METARs EXPIRÉS :
  • 241150Z 25011KT 7000 -DZ SCT003 BKN006 09/09 Q1010
  • 241120Z 23011KT 200V260 9000 -DZ SCT007 BKN016 10/08 Q1009
  • 241050Z 23013KT 200V260 9999 BKN018 10/08 Q1009
  • 241020Z 23014G24KT 9999 BKN017 10/08 Q1009
  • 240950Z 22014G24KT 190V250 9999 BKN024 10/08 Q1009

TAF COR TAF EDFH
Valide du 24 à 12h jusqu'au 25 à 12h UTC


241151Z 2412/2512 23015KT 9999 BKN015
BECMG 2412/2414 24007KT
TEMPO 2412/2418 4000 RA BKN008
TEMPO 2418/2422 BKN008
BECMG 2422/2424 3000 RA BKN005
PROB40
TEMPO 2502/2506 2000 +RA OVC002
BECMG 2506/2509 30007KT
TEMPO 2509/2512 2000 SHSNRA BKN008TCU
Pas de NOTAMs connus pour ce terrain.



MET'MAP, la Météo Aéronautique d'un coup d'oeil ! - Copyright ORBIFLY Décembre 2007 - Disclaimer

ORBIFLY MET'MAP TEAM :

Programmation & Développement : Alexandra Zaïnal
Conception & Développement : Baudouin d'Aumeries
Co-Programmation & Développement : Marc-Olivier Méhu
Soutien technique & logistique : Manuel Goepfert

Contact : metmap@orbifly.com




SOURCES & CREDITS :

   NOAA